sensor_id;sensor_type;location;lat;lon;timestamp;pressure;altitude;pressure_sealevel;temperature
17142;BMP180;32805;53.556;9.944;2023-04-25T00:02:20;100259.00;;;7.90
17142;BMP180;32805;53.556;9.944;2023-04-25T00:04:48;100262.00;;;7.90
17142;BMP180;32805;53.556;9.944;2023-04-25T00:07:18;100258.00;;;7.90
17142;BMP180;32805;53.556;9.944;2023-04-25T00:09:45;100266.00;;;7.80
17142;BMP180;32805;53.556;9.944;2023-04-25T00:12:13;100251.00;;;7.70
17142;BMP180;32805;53.556;9.944;2023-04-25T00:14:41;100256.00;;;7.70
17142;BMP180;32805;53.556;9.944;2023-04-25T00:17:10;100269.00;;;7.70
17142;BMP180;32805;53.556;9.944;2023-04-25T00:19:37;100269.00;;;7.70
17142;BMP180;32805;53.556;9.944;2023-04-25T00:22:05;100268.00;;;7.60
17142;BMP180;32805;53.556;9.944;2023-04-25T00:24:34;100267.00;;;7.60
17142;BMP180;32805;53.556;9.944;2023-04-25T00:27:02;100262.00;;;7.50
17142;BMP180;32805;53.556;9.944;2023-04-25T00:29:30;100273.00;;;7.50
17142;BMP180;32805;53.556;9.944;2023-04-25T00:31:58;100276.00;;;7.50
17142;BMP180;32805;53.556;9.944;2023-04-25T00:34:25;100268.00;;;7.50
17142;BMP180;32805;53.556;9.944;2023-04-25T00:36:53;100268.00;;;7.50
17142;BMP180;32805;53.556;9.944;2023-04-25T00:39:21;100277.00;;;7.50
17142;BMP180;32805;53.556;9.944;2023-04-25T00:41:50;100279.00;;;7.50
17142;BMP180;32805;53.556;9.944;2023-04-25T00:44:20;100264.00;;;7.50
17142;BMP180;32805;53.556;9.944;2023-04-25T00:46:47;100281.00;;;7.60
17142;BMP180;32805;53.556;9.944;2023-04-25T00:49:15;100292.00;;;7.60
17142;BMP180;32805;53.556;9.944;2023-04-25T00:51:43;100278.00;;;7.60
17142;BMP180;32805;53.556;9.944;2023-04-25T00:54:12;100286.00;;;7.60
17142;BMP180;32805;53.556;9.944;2023-04-25T00:56:40;100289.00;;;7.60
17142;BMP180;32805;53.556;9.944;2023-04-25T00:59:10;100293.00;;;7.70
17142;BMP180;32805;53.556;9.944;2023-04-25T01:01:39;100280.00;;;7.70
17142;BMP180;32805;53.556;9.944;2023-04-25T01:04:07;100285.00;;;7.70
17142;BMP180;32805;53.556;9.944;2023-04-25T01:06:35;100285.00;;;7.70
17142;BMP180;32805;53.556;9.944;2023-04-25T01:09:03;100282.00;;;7.70
17142;BMP180;32805;53.556;9.944;2023-04-25T01:11:32;100294.00;;;7.70
17142;BMP180;32805;53.556;9.944;2023-04-25T01:13:59;100288.00;;;7.70
17142;BMP180;32805;53.556;9.944;2023-04-25T01:16:30;100292.00;;;7.70
17142;BMP180;32805;53.556;9.944;2023-04-25T01:18:58;100291.00;;;7.70
17142;BMP180;32805;53.556;9.944;2023-04-25T01:21:27;100287.00;;;7.60
17142;BMP180;32805;53.556;9.944;2023-04-25T01:23:56;100291.00;;;7.60
17142;BMP180;32805;53.556;9.944;2023-04-25T01:26:24;100285.00;;;7.60
17142;BMP180;32805;53.556;9.944;2023-04-25T01:28:52;100294.00;;;7.50
17142;BMP180;32805;53.556;9.944;2023-04-25T01:31:21;100286.00;;;7.60
17142;BMP180;32805;53.556;9.944;2023-04-25T01:33:49;100285.00;;;7.60
17142;BMP180;32805;53.556;9.944;2023-04-25T01:36:17;100296.00;;;7.60
17142;BMP180;32805;53.556;9.944;2023-04-25T01:38:47;100295.00;;;7.60
17142;BMP180;32805;53.556;9.944;2023-04-25T01:41:14;100308.00;;;7.50
17142;BMP180;32805;53.556;9.944;2023-04-25T01:43:43;100293.00;;;7.50
17142;BMP180;32805;53.556;9.944;2023-04-25T01:46:12;100307.00;;;7.50
17142;BMP180;32805;53.556;9.944;2023-04-25T01:48:40;100304.00;;;7.40
17142;BMP180;32805;53.556;9.944;2023-04-25T01:51:07;100304.00;;;7.40
17142;BMP180;32805;53.556;9.944;2023-04-25T01:53:35;100309.00;;;7.40
17142;BMP180;32805;53.556;9.944;2023-04-25T01:56:05;100311.00;;;7.40
17142;BMP180;32805;53.556;9.944;2023-04-25T01:58:34;100305.00;;;7.40
17142;BMP180;32805;53.556;9.944;2023-04-25T02:01:20;100300.00;;;7.40
17142;BMP180;32805;53.556;9.944;2023-04-25T02:04:03;100316.00;;;7.40
17142;BMP180;32805;53.556;9.944;2023-04-25T02:06:35;100313.00;;;7.40
17142;BMP180;32805;53.556;9.944;2023-04-25T02:09:03;100330.00;;;7.40
17142;BMP180;32805;53.556;9.944;2023-04-25T02:11:32;100319.00;;;7.40
17142;BMP180;32805;53.556;9.944;2023-04-25T02:14:20;100316.00;;;7.40
17142;BMP180;32805;53.556;9.944;2023-04-25T02:16:58;100335.00;;;7.30
17142;BMP180;32805;53.556;9.944;2023-04-25T02:19:26;100333.00;;;7.30
17142;BMP180;32805;53.556;9.944;2023-04-25T02:21:54;100337.00;;;7.30
17142;BMP180;32805;53.556;9.944;2023-04-25T02:24:23;100336.00;;;7.20
17142;BMP180;32805;53.556;9.944;2023-04-25T02:26:52;100354.00;;;7.30
17142;BMP180;32805;53.556;9.944;2023-04-25T02:29:21;100343.00;;;7.30
17142;BMP180;32805;53.556;9.944;2023-04-25T02:31:49;100340.00;;;7.20
17142;BMP180;32805;53.556;9.944;2023-04-25T02:34:17;100338.00;;;7.30
17142;BMP180;32805;53.556;9.944;2023-04-25T02:36:44;100325.00;;;7.20
17142;BMP180;32805;53.556;9.944;2023-04-25T02:39:12;100341.00;;;7.30
17142;BMP180;32805;53.556;9.944;2023-04-25T02:41:39;100341.00;;;7.30
17142;BMP180;32805;53.556;9.944;2023-04-25T02:44:08;100344.00;;;7.30
17142;BMP180;32805;53.556;9.944;2023-04-25T02:46:36;100346.00;;;7.30
17142;BMP180;32805;53.556;9.944;2023-04-25T02:49:05;100338.00;;;7.20
17142;BMP180;32805;53.556;9.944;2023-04-25T02:51:34;100342.00;;;7.20
17142;BMP180;32805;53.556;9.944;2023-04-25T02:54:02;100345.00;;;7.20
17142;BMP180;32805;53.556;9.944;2023-04-25T02:56:33;100338.00;;;7.20
17142;BMP180;32805;53.556;9.944;2023-04-25T02:59:01;100340.00;;;7.20
17142;BMP180;32805;53.556;9.944;2023-04-25T03:01:31;100335.00;;;7.20
17142;BMP180;32805;53.556;9.944;2023-04-25T03:03:58;100334.00;;;7.10
17142;BMP180;32805;53.556;9.944;2023-04-25T03:06:26;100332.00;;;7.00
17142;BMP180;32805;53.556;9.944;2023-04-25T03:08:54;100338.00;;;7.00
17142;BMP180;32805;53.556;9.944;2023-04-25T03:11:22;100350.00;;;6.90
17142;BMP180;32805;53.556;9.944;2023-04-25T03:13:49;100350.00;;;6.90
17142;BMP180;32805;53.556;9.944;2023-04-25T03:16:18;100360.00;;;6.90
17142;BMP180;32805;53.556;9.944;2023-04-25T03:18:47;100362.00;;;6.90
17142;BMP180;32805;53.556;9.944;2023-04-25T03:21:17;100363.00;;;6.80
17142;BMP180;32805;53.556;9.944;2023-04-25T03:23:45;100359.00;;;6.80
17142;BMP180;32805;53.556;9.944;2023-04-25T03:26:13;100359.00;;;6.70
17142;BMP180;32805;53.556;9.944;2023-04-25T03:28:41;100371.00;;;6.60
17142;BMP180;32805;53.556;9.944;2023-04-25T03:31:09;100365.00;;;6.70
17142;BMP180;32805;53.556;9.944;2023-04-25T03:33:36;100371.00;;;6.60
17142;BMP180;32805;53.556;9.944;2023-04-25T03:36:07;100366.00;;;6.60
17142;BMP180;32805;53.556;9.944;2023-04-25T03:38:34;100364.00;;;6.60
17142;BMP180;32805;53.556;9.944;2023-04-25T03:41:02;100375.00;;;6.60
17142;BMP180;32805;53.556;9.944;2023-04-25T03:43:40;100380.00;;;6.60
17142;BMP180;32805;53.556;9.944;2023-04-25T03:46:11;100373.00;;;6.60
17142;BMP180;32805;53.556;9.944;2023-04-25T03:48:40;100373.00;;;6.60
17142;BMP180;32805;53.556;9.944;2023-04-25T03:51:11;100387.00;;;6.60
17142;BMP180;32805;53.556;9.944;2023-04-25T03:53:42;100384.00;;;6.70
17142;BMP180;32805;53.556;9.944;2023-04-25T03:56:18;100380.00;;;6.60
17142;BMP180;32805;53.556;9.944;2023-04-25T03:58:52;100379.00;;;6.70
17142;BMP180;32805;53.556;9.944;2023-04-25T04:01:22;100376.00;;;6.60
17142;BMP180;32805;53.556;9.944;2023-04-25T04:03:49;100388.00;;;6.60
17142;BMP180;32805;53.556;9.944;2023-04-25T04:06:19;100382.00;;;6.50
17142;BMP180;32805;53.556;9.944;2023-04-25T04:08:51;100390.00;;;6.50
17142;BMP180;32805;53.556;9.944;2023-04-25T04:11:19;100392.00;;;6.40
17142;BMP180;32805;53.556;9.944;2023-04-25T04:13:47;100405.00;;;6.40
17142;BMP180;32805;53.556;9.944;2023-04-25T04:16:15;100395.00;;;6.40
17142;BMP180;32805;53.556;9.944;2023-04-25T04:18:43;100404.00;;;6.40
17142;BMP180;32805;53.556;9.944;2023-04-25T04:21:11;100410.00;;;6.30
17142;BMP180;32805;53.556;9.944;2023-04-25T04:23:41;100410.00;;;6.30
17142;BMP180;32805;53.556;9.944;2023-04-25T04:26:09;100409.00;;;6.30
17142;BMP180;32805;53.556;9.944;2023-04-25T04:28:50;100406.00;;;6.30
17142;BMP180;32805;53.556;9.944;2023-04-25T04:31:44;100408.00;;;6.40
17142;BMP180;32805;53.556;9.944;2023-04-25T04:34:12;100410.00;;;6.40
17142;BMP180;32805;53.556;9.944;2023-04-25T04:36:40;100427.00;;;6.40
17142;BMP180;32805;53.556;9.944;2023-04-25T04:39:09;100419.00;;;6.30
17142;BMP180;32805;53.556;9.944;2023-04-25T04:41:45;100429.00;;;6.40
17142;BMP180;32805;53.556;9.944;2023-04-25T04:44:28;100430.00;;;6.50
17142;BMP180;32805;53.556;9.944;2023-04-25T04:47:12;100425.00;;;6.60
17142;BMP180;32805;53.556;9.944;2023-04-25T04:49:55;100425.00;;;6.60
17142;BMP180;32805;53.556;9.944;2023-04-25T04:52:49;100432.00;;;6.60
17142;BMP180;32805;53.556;9.944;2023-04-25T04:55:37;100430.00;;;6.60
17142;BMP180;32805;53.556;9.944;2023-04-25T04:58:14;100429.00;;;6.60
17142;BMP180;32805;53.556;9.944;2023-04-25T05:00:56;100437.00;;;6.70
17142;BMP180;32805;53.556;9.944;2023-04-25T05:03:59;100440.00;;;6.80
17142;BMP180;32805;53.556;9.944;2023-04-25T05:06:51;100448.00;;;6.80
17142;BMP180;32805;53.556;9.944;2023-04-25T05:09:39;100458.00;;;6.70
17142;BMP180;32805;53.556;9.944;2023-04-25T05:12:38;100454.00;;;6.70
17142;BMP180;32805;53.556;9.944;2023-04-25T05:15:14;100457.00;;;6.70
17142;BMP180;32805;53.556;9.944;2023-04-25T05:17:58;100466.00;;;6.70
17142;BMP180;32805;53.556;9.944;2023-04-25T05:20:44;100475.00;;;6.70
17142;BMP180;32805;53.556;9.944;2023-04-25T05:23:26;100472.00;;;6.80
17142;BMP180;32805;53.556;9.944;2023-04-25T05:26:01;100481.00;;;6.80
17142;BMP180;32805;53.556;9.944;2023-04-25T05:28:36;100469.00;;;6.80
17142;BMP180;32805;53.556;9.944;2023-04-25T05:31:22;100484.00;;;6.80
17142;BMP180;32805;53.556;9.944;2023-04-25T05:33:56;100493.00;;;6.80
17142;BMP180;32805;53.556;9.944;2023-04-25T05:36:32;100475.00;;;6.80
17142;BMP180;32805;53.556;9.944;2023-04-25T05:38:59;100474.00;;;6.80
17142;BMP180;32805;53.556;9.944;2023-04-25T05:41:50;100487.00;;;6.90
17142;BMP180;32805;53.556;9.944;2023-04-25T05:44:45;100495.00;;;6.90
17142;BMP180;32805;53.556;9.944;2023-04-25T05:47:33;100491.00;;;6.80
17142;BMP180;32805;53.556;9.944;2023-04-25T05:50:07;100491.00;;;6.90
17142;BMP180;32805;53.556;9.944;2023-04-25T05:52:56;100485.00;;;7.00
17142;BMP180;32805;53.556;9.944;2023-04-25T05:55:44;100491.00;;;7.10
17142;BMP180;32805;53.556;9.944;2023-04-25T05:58:20;100491.00;;;7.00
17142;BMP180;32805;53.556;9.944;2023-04-25T06:00:50;100498.00;;;7.10
17142;BMP180;32805;53.556;9.944;2023-04-25T06:03:17;100492.00;;;7.10
17142;BMP180;32805;53.556;9.944;2023-04-25T06:05:50;100502.00;;;7.10
17142;BMP180;32805;53.556;9.944;2023-04-25T06:08:20;100496.00;;;7.20
17142;BMP180;32805;53.556;9.944;2023-04-25T06:10:48;100491.00;;;7.20
17142;BMP180;32805;53.556;9.944;2023-04-25T06:13:16;100501.00;;;7.40
17142;BMP180;32805;53.556;9.944;2023-04-25T06:15:43;100496.00;;;7.40
17142;BMP180;32805;53.556;9.944;2023-04-25T06:18:12;100506.00;;;7.40
17142;BMP180;32805;53.556;9.944;2023-04-25T06:20:40;100522.00;;;7.30
17142;BMP180;32805;53.556;9.944;2023-04-25T06:23:08;100525.00;;;7.30
17142;BMP180;32805;53.556;9.944;2023-04-25T06:25:50;100530.00;;;7.30
17142;BMP180;32805;53.556;9.944;2023-04-25T06:28:18;100517.00;;;7.30
17142;BMP180;32805;53.556;9.944;2023-04-25T06:30:48;100511.00;;;7.30
17142;BMP180;32805;53.556;9.944;2023-04-25T06:33:19;100521.00;;;7.40
17142;BMP180;32805;53.556;9.944;2023-04-25T06:35:48;100523.00;;;7.40
17142;BMP180;32805;53.556;9.944;2023-04-25T06:38:20;100520.00;;;7.30
17142;BMP180;32805;53.556;9.944;2023-04-25T06:40:50;100517.00;;;7.30
17142;BMP180;32805;53.556;9.944;2023-04-25T06:43:18;100520.00;;;7.40
17142;BMP180;32805;53.556;9.944;2023-04-25T06:46:07;100522.00;;;7.40
17142;BMP180;32805;53.556;9.944;2023-04-25T06:48:42;100515.00;;;7.60
17142;BMP180;32805;53.556;9.944;2023-04-25T06:51:10;100522.00;;;7.60
17142;BMP180;32805;53.556;9.944;2023-04-25T06:53:40;100524.00;;;7.50
17142;BMP180;32805;53.556;9.944;2023-04-25T06:56:14;100528.00;;;7.70
17142;BMP180;32805;53.556;9.944;2023-04-25T06:58:53;100523.00;;;7.70
17142;BMP180;32805;53.556;9.944;2023-04-25T07:01:26;100526.00;;;7.80
17142;BMP180;32805;53.556;9.944;2023-04-25T07:03:56;100538.00;;;7.80
17142;BMP180;32805;53.556;9.944;2023-04-25T07:06:24;100535.00;;;8.00
17142;BMP180;32805;53.556;9.944;2023-04-25T07:08:54;100520.00;;;7.90
17142;BMP180;32805;53.556;9.944;2023-04-25T07:11:23;100525.00;;;8.10
17142;BMP180;32805;53.556;9.944;2023-04-25T07:13:50;100529.00;;;8.30
17142;BMP180;32805;53.556;9.944;2023-04-25T07:16:18;100535.00;;;8.40
17142;BMP180;32805;53.556;9.944;2023-04-25T07:18:46;100540.00;;;8.40
17142;BMP180;32805;53.556;9.944;2023-04-25T07:21:16;100534.00;;;8.40
17142;BMP180;32805;53.556;9.944;2023-04-25T07:23:45;100544.00;;;8.50
17142;BMP180;32805;53.556;9.944;2023-04-25T07:26:16;100545.00;;;8.50
17142;BMP180;32805;53.556;9.944;2023-04-25T07:29:04;100545.00;;;8.60
17142;BMP180;32805;53.556;9.944;2023-04-25T07:31:32;100555.00;;;8.80
17142;BMP180;32805;53.556;9.944;2023-04-25T07:33:59;100549.00;;;8.80
17142;BMP180;32805;53.556;9.944;2023-04-25T07:36:29;100551.00;;;8.60
17142;BMP180;32805;53.556;9.944;2023-04-25T07:38:57;100537.00;;;8.60
17142;BMP180;32805;53.556;9.944;2023-04-25T07:41:25;100546.00;;;8.60
17142;BMP180;32805;53.556;9.944;2023-04-25T07:43:52;100547.00;;;8.70
17142;BMP180;32805;53.556;9.944;2023-04-25T07:46:20;100550.00;;;8.70
17142;BMP180;32805;53.556;9.944;2023-04-25T07:48:48;100545.00;;;8.70
17142;BMP180;32805;53.556;9.944;2023-04-25T07:51:16;100544.00;;;8.70
17142;BMP180;32805;53.556;9.944;2023-04-25T07:53:47;100544.00;;;8.80
17142;BMP180;32805;53.556;9.944;2023-04-25T07:56:16;100545.00;;;9.00
17142;BMP180;32805;53.556;9.944;2023-04-25T07:58:47;100535.00;;;9.00
17142;BMP180;32805;53.556;9.944;2023-04-25T08:01:16;100555.00;;;8.90
17142;BMP180;32805;53.556;9.944;2023-04-25T08:03:53;100557.00;;;9.00
17142;BMP180;32805;53.556;9.944;2023-04-25T08:06:26;100566.00;;;9.20
17142;BMP180;32805;53.556;9.944;2023-04-25T08:09:09;100562.00;;;9.10
17142;BMP180;32805;53.556;9.944;2023-04-25T08:11:40;100563.00;;;9.30
17142;BMP180;32805;53.556;9.944;2023-04-25T08:14:10;100549.00;;;9.40
17142;BMP180;32805;53.556;9.944;2023-04-25T08:16:39;100557.00;;;9.60
17142;BMP180;32805;53.556;9.944;2023-04-25T08:19:07;100559.00;;;9.60
17142;BMP180;32805;53.556;9.944;2023-04-25T08:21:34;100568.00;;;9.60
17142;BMP180;32805;53.556;9.944;2023-04-25T08:24:06;100570.00;;;9.50
17142;BMP180;32805;53.556;9.944;2023-04-25T08:26:37;100567.00;;;9.40
17142;BMP180;32805;53.556;9.944;2023-04-25T08:29:07;100575.00;;;9.50
17142;BMP180;32805;53.556;9.944;2023-04-25T08:31:38;100576.00;;;9.60
17142;BMP180;32805;53.556;9.944;2023-04-25T08:34:07;100582.00;;;9.60
17142;BMP180;32805;53.556;9.944;2023-04-25T08:36:42;100582.00;;;9.60
17142;BMP180;32805;53.556;9.944;2023-04-25T08:39:36;100613.00;;;9.60
17142;BMP180;32805;53.556;9.944;2023-04-25T08:42:31;100598.00;;;9.50
17142;BMP180;32805;53.556;9.944;2023-04-25T08:45:02;100594.00;;;9.60
17142;BMP180;32805;53.556;9.944;2023-04-25T08:47:37;100613.00;;;9.70
17142;BMP180;32805;53.556;9.944;2023-04-25T08:50:06;100608.00;;;9.70
17142;BMP180;32805;53.556;9.944;2023-04-25T08:52:36;100603.00;;;9.70
17142;BMP180;32805;53.556;9.944;2023-04-25T08:55:07;100627.00;;;9.50
17142;BMP180;32805;53.556;9.944;2023-04-25T08:57:39;100633.00;;;9.50
17142;BMP180;32805;53.556;9.944;2023-04-25T09:00:09;100638.00;;;9.30
17142;BMP180;32805;53.556;9.944;2023-04-25T09:02:42;100640.00;;;9.40
17142;BMP180;32805;53.556;9.944;2023-04-25T09:05:12;100648.00;;;9.40
17142;BMP180;32805;53.556;9.944;2023-04-25T09:07:40;100653.00;;;9.30
17142;BMP180;32805;53.556;9.944;2023-04-25T09:10:08;100641.00;;;9.10
17142;BMP180;32805;53.556;9.944;2023-04-25T09:12:39;100646.00;;;9.10
17142;BMP180;32805;53.556;9.944;2023-04-25T09:15:09;100653.00;;;9.30
17142;BMP180;32805;53.556;9.944;2023-04-25T09:17:55;100657.00;;;9.20
17142;BMP180;32805;53.556;9.944;2023-04-25T09:20:24;100671.00;;;9.30
17142;BMP180;32805;53.556;9.944;2023-04-25T09:23:01;100662.00;;;9.30
17142;BMP180;32805;53.556;9.944;2023-04-25T09:25:34;100666.00;;;9.30
17142;BMP180;32805;53.556;9.944;2023-04-25T09:28:05;100667.00;;;9.20
17142;BMP180;32805;53.556;9.944;2023-04-25T09:30:35;100666.00;;;9.20
17142;BMP180;32805;53.556;9.944;2023-04-25T09:33:18;100669.00;;;9.30
17142;BMP180;32805;53.556;9.944;2023-04-25T09:35:49;100687.00;;;9.80
17142;BMP180;32805;53.556;9.944;2023-04-25T09:38:29;100717.00;;;9.80
17142;BMP180;32805;53.556;9.944;2023-04-25T09:41:02;100718.00;;;8.50
17142;BMP180;32805;53.556;9.944;2023-04-25T09:43:44;100722.00;;;8.00
17142;BMP180;32805;53.556;9.944;2023-04-25T09:46:13;100719.00;;;8.10
17142;BMP180;32805;53.556;9.944;2023-04-25T09:48:48;100719.00;;;8.30
17142;BMP180;32805;53.556;9.944;2023-04-25T09:51:25;100693.00;;;8.50
17142;BMP180;32805;53.556;9.944;2023-04-25T09:53:54;100714.00;;;8.50
17142;BMP180;32805;53.556;9.944;2023-04-25T09:56:43;100715.00;;;8.50
17142;BMP180;32805;53.556;9.944;2023-04-25T09:59:13;100713.00;;;8.70
17142;BMP180;32805;53.556;9.944;2023-04-25T10:01:43;100707.00;;;8.90
17142;BMP180;32805;53.556;9.944;2023-04-25T10:04:24;100722.00;;;9.00
17142;BMP180;32805;53.556;9.944;2023-04-25T10:07:16;100717.00;;;9.00
17142;BMP180;32805;53.556;9.944;2023-04-25T10:09:48;100707.00;;;8.90
17142;BMP180;32805;53.556;9.944;2023-04-25T10:12:17;100708.00;;;9.00
17142;BMP180;32805;53.556;9.944;2023-04-25T10:14:46;100716.00;;;9.30
17142;BMP180;32805;53.556;9.944;2023-04-25T10:17:14;100711.00;;;9.50
17142;BMP180;32805;53.556;9.944;2023-04-25T10:19:43;100722.00;;;9.70
17142;BMP180;32805;53.556;9.944;2023-04-25T10:22:14;100718.00;;;9.30
17142;BMP180;32805;53.556;9.944;2023-04-25T10:24:43;100723.00;;;9.10
17142;BMP180;32805;53.556;9.944;2023-04-25T10:27:12;100733.00;;;9.00
17142;BMP180;32805;53.556;9.944;2023-04-25T10:29:41;100714.00;;;9.10
17142;BMP180;32805;53.556;9.944;2023-04-25T10:32:11;100732.00;;;9.20
17142;BMP180;32805;53.556;9.944;2023-04-25T10:34:40;100743.00;;;9.40
17142;BMP180;32805;53.556;9.944;2023-04-25T10:37:09;100715.00;;;9.60
17142;BMP180;32805;53.556;9.944;2023-04-25T10:39:39;100715.00;;;9.80
17142;BMP180;32805;53.556;9.944;2023-04-25T10:42:07;100719.00;;;9.80
17142;BMP180;32805;53.556;9.944;2023-04-25T10:44:37;100714.00;;;9.90
17142;BMP180;32805;53.556;9.944;2023-04-25T10:47:07;100709.00;;;10.10
17142;BMP180;32805;53.556;9.944;2023-04-25T10:49:40;100731.00;;;10.30
17142;BMP180;32805;53.556;9.944;2023-04-25T10:52:24;100721.00;;;10.30
17142;BMP180;32805;53.556;9.944;2023-04-25T10:54:53;100726.00;;;10.30
17142;BMP180;32805;53.556;9.944;2023-04-25T10:57:32;100762.00;;;10.20
17142;BMP180;32805;53.556;9.944;2023-04-25T11:00:06;100751.00;;;10.20
17142;BMP180;32805;53.556;9.944;2023-04-25T11:02:46;100729.00;;;10.10
17142;BMP180;32805;53.556;9.944;2023-04-25T11:05:23;100739.00;;;10.00
17142;BMP180;32805;53.556;9.944;2023-04-25T11:07:55;100731.00;;;9.60
17142;BMP180;32805;53.556;9.944;2023-04-25T11:10:34;100750.00;;;9.50
17142;BMP180;32805;53.556;9.944;2023-04-25T11:13:02;100744.00;;;9.60
17142;BMP180;32805;53.556;9.944;2023-04-25T11:15:30;100748.00;;;9.80
17142;BMP180;32805;53.556;9.944;2023-04-25T11:17:58;100752.00;;;10.00
17142;BMP180;32805;53.556;9.944;2023-04-25T11:20:27;100739.00;;;10.30
17142;BMP180;32805;53.556;9.944;2023-04-25T11:22:57;100744.00;;;10.50
17142;BMP180;32805;53.556;9.944;2023-04-25T11:25:25;100732.00;;;10.50
17142;BMP180;32805;53.556;9.944;2023-04-25T11:27:53;100725.00;;;10.60
17142;BMP180;32805;53.556;9.944;2023-04-25T11:30:24;100731.00;;;10.70
17142;BMP180;32805;53.556;9.944;2023-04-25T11:32:52;100768.00;;;10.40
17142;BMP180;32805;53.556;9.944;2023-04-25T11:35:20;100760.00;;;9.90
17142;BMP180;32805;53.556;9.944;2023-04-25T11:37:51;100776.00;;;9.60
17142;BMP180;32805;53.556;9.944;2023-04-25T11:40:18;100803.00;;;9.30
17142;BMP180;32805;53.556;9.944;2023-04-25T11:42:47;100797.00;;;9.10
17142;BMP180;32805;53.556;9.944;2023-04-25T11:45:14;100791.00;;;8.90
17142;BMP180;32805;53.556;9.944;2023-04-25T11:47:42;100793.00;;;9.00
17142;BMP180;32805;53.556;9.944;2023-04-25T11:50:10;100807.00;;;9.10
17142;BMP180;32805;53.556;9.944;2023-04-25T11:52:39;100789.00;;;9.20
17142;BMP180;32805;53.556;9.944;2023-04-25T11:55:12;100791.00;;;9.10
17142;BMP180;32805;53.556;9.944;2023-04-25T11:57:41;100818.00;;;9.20
17142;BMP180;32805;53.556;9.944;2023-04-25T12:00:11;100797.00;;;9.10
17142;BMP180;32805;53.556;9.944;2023-04-25T12:02:45;100789.00;;;9.20
17142;BMP180;32805;53.556;9.944;2023-04-25T12:05:14;100797.00;;;9.40
17142;BMP180;32805;53.556;9.944;2023-04-25T12:07:57;100774.00;;;9.90
17142;BMP180;32805;53.556;9.944;2023-04-25T12:10:26;100762.00;;;10.20
17142;BMP180;32805;53.556;9.944;2023-04-25T12:12:54;100791.00;;;10.50
17142;BMP180;32805;53.556;9.944;2023-04-25T12:15:24;100788.00;;;10.70
17142;BMP180;32805;53.556;9.944;2023-04-25T12:17:53;100793.00;;;10.60
17142;BMP180;32805;53.556;9.944;2023-04-25T12:20:24;100767.00;;;10.80
17142;BMP180;32805;53.556;9.944;2023-04-25T12:22:52;100805.00;;;11.00
17142;BMP180;32805;53.556;9.944;2023-04-25T12:25:37;100788.00;;;10.90
17142;BMP180;32805;53.556;9.944;2023-04-25T12:28:13;100783.00;;;10.80
17142;BMP180;32805;53.556;9.944;2023-04-25T12:30:57;100789.00;;;10.80
17142;BMP180;32805;53.556;9.944;2023-04-25T12:33:27;100798.00;;;11.00
17142;BMP180;32805;53.556;9.944;2023-04-25T12:35:55;100789.00;;;11.30
17142;BMP180;32805;53.556;9.944;2023-04-25T12:38:25;100800.00;;;11.10
17142;BMP180;32805;53.556;9.944;2023-04-25T12:40:54;100801.00;;;10.90
17142;BMP180;32805;53.556;9.944;2023-04-25T12:43:22;100797.00;;;11.20
17142;BMP180;32805;53.556;9.944;2023-04-25T12:45:51;100793.00;;;11.30
17142;BMP180;32805;53.556;9.944;2023-04-25T12:48:19;100798.00;;;11.10
17142;BMP180;32805;53.556;9.944;2023-04-25T12:50:47;100813.00;;;11.00
17142;BMP180;32805;53.556;9.944;2023-04-25T12:53:16;100844.00;;;10.70
17142;BMP180;32805;53.556;9.944;2023-04-25T12:55:43;100829.00;;;10.30
17142;BMP180;32805;53.556;9.944;2023-04-25T12:58:14;100839.00;;;10.10
17142;BMP180;32805;53.556;9.944;2023-04-25T13:00:43;100838.00;;;10.00
17142;BMP180;32805;53.556;9.944;2023-04-25T13:03:11;100844.00;;;10.10
17142;BMP180;32805;53.556;9.944;2023-04-25T13:05:40;100827.00;;;10.30
17142;BMP180;32805;53.556;9.944;2023-04-25T13:08:08;100847.00;;;10.80
17142;BMP180;32805;53.556;9.944;2023-04-25T13:10:36;100836.00;;;11.10
17142;BMP180;32805;53.556;9.944;2023-04-25T13:13:05;100838.00;;;11.00
17142;BMP180;32805;53.556;9.944;2023-04-25T13:15:34;100872.00;;;10.70
17142;BMP180;32805;53.556;9.944;2023-04-25T13:18:02;100912.00;;;9.50
17142;BMP180;32805;53.556;9.944;2023-04-25T13:20:30;100920.00;;;8.40
17142;BMP180;32805;53.556;9.944;2023-04-25T13:22:58;100904.00;;;7.60
17142;BMP180;32805;53.556;9.944;2023-04-25T13:25:28;100901.00;;;7.50
17142;BMP180;32805;53.556;9.944;2023-04-25T13:27:56;100894.00;;;7.50
17142;BMP180;32805;53.556;9.944;2023-04-25T13:30:24;100896.00;;;7.60
17142;BMP180;32805;53.556;9.944;2023-04-25T13:32:53;100884.00;;;8.00
17142;BMP180;32805;53.556;9.944;2023-04-25T13:35:23;100896.00;;;8.30
17142;BMP180;32805;53.556;9.944;2023-04-25T13:37:51;100897.00;;;8.50
17142;BMP180;32805;53.556;9.944;2023-04-25T13:40:19;100898.00;;;8.70
17142;BMP180;32805;53.556;9.944;2023-04-25T13:42:50;100891.00;;;9.00
17142;BMP180;32805;53.556;9.944;2023-04-25T13:45:18;100881.00;;;9.30
17142;BMP180;32805;53.556;9.944;2023-04-25T13:47:49;100893.00;;;9.40
17142;BMP180;32805;53.556;9.944;2023-04-25T13:50:18;100947.00;;;8.70
17142;BMP180;32805;53.556;9.944;2023-04-25T13:52:46;100949.00;;;7.90
17142;BMP180;32805;53.556;9.944;2023-04-25T13:55:14;100948.00;;;7.10
17142;BMP180;32805;53.556;9.944;2023-04-25T13:57:42;100959.00;;;6.70
17142;BMP180;32805;53.556;9.944;2023-04-25T14:00:11;100943.00;;;6.60
17142;BMP180;32805;53.556;9.944;2023-04-25T14:02:39;100929.00;;;6.60
17142;BMP180;32805;53.556;9.944;2023-04-25T14:05:08;100930.00;;;6.60
17142;BMP180;32805;53.556;9.944;2023-04-25T14:08:01;100906.00;;;6.90
17142;BMP180;32805;53.556;9.944;2023-04-25T14:11:12;100935.00;;;7.50
17142;BMP180;32805;53.556;9.944;2023-04-25T14:13:40;100915.00;;;8.10
17142;BMP180;32805;53.556;9.944;2023-04-25T14:16:08;100916.00;;;8.60
17142;BMP180;32805;53.556;9.944;2023-04-25T14:18:35;100914.00;;;8.50
17142;BMP180;32805;53.556;9.944;2023-04-25T14:21:03;100936.00;;;8.60
17142;BMP180;32805;53.556;9.944;2023-04-25T14:23:32;100918.00;;;8.80
17142;BMP180;32805;53.556;9.944;2023-04-25T14:26:00;100918.00;;;9.20
17142;BMP180;32805;53.556;9.944;2023-04-25T14:28:28;100908.00;;;9.40
17142;BMP180;32805;53.556;9.944;2023-04-25T14:30:56;100907.00;;;9.20
17142;BMP180;32805;53.556;9.944;2023-04-25T14:33:24;100910.00;;;9.30